• Join FlightAware (Why Join?)
  • Login
  • US Flag 
03:13AM EDT


 

Airport Tracker/Info


-or-


 

Live Flight TrackerFlight Track Log ✈ N600TR ✈ 14-Aug-2013 ✈ KATL - KAVL

Flight Track Log - Related Links

Times and Time Zones

All times are in EDT time to prevent confusion due to time zone crossing. See the N600TR flight status page for this flight to view local times or setup timezone preferences in your user account.

Time Position Orientation Groundspeed Altitude Reporting Facility
EDT Latitude Longitude Course Direction KTS MPH feet Rate Location/Type
08:37PM 33.6500 -84.3833 24° Northeast 160 184 2,600  Level Atlanta TRACON
08:38PM 33.6667 -84.3167 73° East 257 296 4,500 2,280 Climbing Atlanta TRACON
08:39PM 33.7333 -84.2667 32° Northeast 277 319 7,200 2,100 Climbing Atlanta TRACON
08:41PM 34.1463 -84.3077 North  Level FlightAware Approximate
08:41PM 33.9131 -84.2742 358° North 301 346 11,300  Level Atlanta Center
08:42PM 34.2458 -84.2753 24° Northeast  Level FlightAware Approximate
08:42PM 34.0131 -84.2819 356° North 342 394 13,900  Level Atlanta Center
08:43PM 34.0986 -84.3197 340° North 345 397 15,900 2,040 Climbing Atlanta Center
08:44PM 34.2072 -84.3628 342° North 368 423 18,000 1,860 Climbing Atlanta Center
08:45PM 34.3114 -84.3983 344° North 379 436 19,700 1,560 Climbing Atlanta Center
08:46PM 34.4178 -84.4242 349° North 379 436 21,200 1,560 Climbing Atlanta Center
08:47PM 34.5303 -84.4397 354° North 393 452 22,900 900 Climbing Atlanta Center
08:48PM 34.6328 -84.3644 31° Northeast 397 457 23,000  Climbing Atlanta Center
08:49PM 34.7186 -84.2486 48° Northeast 403 464 23,000  Level Atlanta Center
08:50PM 34.7897 -84.1450 50° Northeast 421 484 23,000  Level Atlanta Center
08:51PM 34.8692 -84.0211 52° Northeast 438 504 23,000  Level Atlanta Center
08:52PM 34.9400 -83.8817 58° Northeast 459 528 23,000 -360 Level Atlanta Center
08:53PM 34.9708 -83.7294 76° East 461 531 22,300 -540 Descending Atlanta Center
08:54PM 35.0142 -83.5822 70° East 456 525 22,000 -180 Descending Atlanta Center
08:55PM 35.0556 -83.4500 69° East 439 505 22,000 -600 Level Atlanta Center
08:56PM 35.0922 -83.3203 71° East 417 480 20,800 -1,980 Descending Atlanta Center
08:57PM 35.1353 -83.1753 70° East 426 490 18,100 -2,820 Descending Atlanta Center
08:58PM 35.1739 -83.0403 71° East 426 490 15,200 -3,000 Descending Atlanta Center
08:59PM 35.2144 -82.9150 68° East 416 479 12,100 -2,160 Descending Atlanta Center
09:00PM 35.2467 -82.8003 71° East 384 442 10,900 -1,260 Descending Atlanta Center
09:01PM 35.2436 -82.6908 92° East 320 368 9,600 -1,500 Descending Atlanta Center
09:02PM 35.2236 -82.5997 105° East 293 337 8,000 6,660 Descending Atlanta Center
09:03PM 35.1892 -82.5114 115° Southeast 261 300 23,000 -1,200 Climbing Atlanta Center
09:04PM 35.2303 -82.4650 43° Northeast 186 214 5,600 -8,940 Descending Atlanta Center
09:05PM 35.2700 -82.4564 10° North 149 171 5,200 8,700 Descending Atlanta Center
09:06PM 35.3119 -82.4886 328° Northwest 149 171 23,000 8,880 Climbing Atlanta Center
09:07PM 35.3200 -82.4581 72° East 149 171 23,000  Level Atlanta Center
09:09PM 35.3714 -82.3523 68° East  Level FlightAware Approximate
09:16PM 35.4333 -82.5333 287° West  Level FlightAware Approximate
09:17PM 35.4362 -82.5418 287° West  Level Estimated
09:18PM 35.4362 -82.5418 287° West  Level Estimated
09:19PM 35.4362 -82.5418 287° West  Level Estimated